Time;durP1;ratioP1;P1;durP2;ratioP2;P2;SDS_P1;SDS_P2;PMS_P1;PMS_P2;Temp;Humidity;BMP_temperature;BMP_pressure;BME280_temperature;BME280_humidity;BME280_pressure;Samples;Min_cycle;Max_cycle;Signal;HPM_P1;HPM_P2
2022/08/03 00:01:27;;;;;;;1999.90;999.90;;;22.90;99.90;;;;;;5015103;28;20411;-74
2022/08/03 00:03:52;;;;;;;1999.90;999.90;;;22.90;99.90;;;;;;5015047;28;20172;-73
2022/08/03 00:06:18;;;;;;;1999.90;999.90;;;22.90;99.90;;;;;;5014797;28;20623;-73
2022/08/03 00:08:43;;;;;;;1999.90;999.90;;;22.90;99.90;;;;;;5014984;28;20208;-73
2022/08/03 00:11:09;;;;;;;1999.90;999.90;;;22.90;99.90;;;;;;5024520;28;20169;-73
2022/08/03 00:13:35;;;;;;;1999.90;999.90;;;22.80;99.90;;;;;;5030967;28;20203;-73
2022/08/03 00:16:00;;;;;;;1999.90;999.90;;;22.80;99.90;;;;;;5031641;28;20275;-73
2022/08/03 00:18:26;;;;;;;1999.90;999.90;;;22.70;99.90;;;;;;5031372;28;20203;-73
2022/08/03 00:20:52;;;;;;;1999.90;999.90;;;22.70;99.90;;;;;;5031362;28;20177;-72
2022/08/03 00:23:17;;;;;;;1999.90;999.90;;;22.70;99.90;;;;;;5031386;28;20173;-73
2022/08/03 00:25:43;;;;;;;1999.90;999.90;;;22.70;99.90;;;;;;5020979;28;20246;-73
2022/08/03 00:28:09;;;;;;;1999.90;999.90;;;22.60;99.90;;;;;;5014309;28;20262;-73
2022/08/03 00:30:35;;;;;;;1999.90;999.90;;;22.60;99.90;;;;;;5014632;28;20173;-73
2022/08/03 00:33:01;;;;;;;1999.90;999.90;;;22.60;99.90;;;;;;5014666;28;20177;-72
2022/08/03 00:35:28;;;;;;;1999.90;999.90;;;22.50;99.90;;;;;;5014419;28;20430;-73
2022/08/03 00:37:53;;;;;;;1999.90;999.90;;;22.50;99.90;;;;;;5014206;28;20377;-71
2022/08/03 00:40:19;;;;;;;1999.90;999.90;;;22.40;99.90;;;;;;5014342;28;20449;-72
2022/08/03 00:43:06;;;;;;;1999.90;999.90;;;22.40;99.90;;;;;;5014362;28;20664;-73
2022/08/03 00:45:34;;;;;;;1999.90;999.90;;;22.30;99.90;;;;;;5014362;28;20425;-73
2022/08/03 00:48:00;;;;;;;1999.90;999.90;;;22.30;99.90;;;;;;5014031;28;20954;-73
2022/08/03 00:50:28;;;;;;;1999.90;999.90;;;22.20;99.90;;;;;;5014242;28;20900;-72
2022/08/03 00:52:56;;;;;;;1999.90;999.90;;;22.10;99.90;;;;;;5014173;28;20459;-71
2022/08/03 00:55:22;;;;;;;1999.90;999.90;;;22.00;99.90;;;;;;5013324;28;20431;-71
2022/08/03 00:57:47;;;;;;;1999.90;999.90;;;22.00;99.90;;;;;;5030454;28;20418;-73
2022/08/03 01:00:16;;;;;;;1999.90;999.90;;;22.00;99.90;;;;;;5032618;28;20414;-73
2022/08/03 01:02:42;;;;;;;1999.90;999.90;;;22.00;99.90;;;;;;5031833;28;20191;-73
2022/08/03 01:05:09;;;;;;;1999.90;999.90;;;22.00;99.90;;;;;;5031371;28;20983;-73
2022/08/03 01:08:06;;;;;;;1999.90;999.90;;;22.00;99.90;;;;;;5031120;28;20208;-73
2022/08/03 01:10:48;;;;;;;1999.90;999.90;;;22.00;99.90;;;;;;5030296;28;20409;-73
2022/08/03 01:13:19;;;;;;;1999.90;999.90;;;21.90;99.90;;;;;;5030858;28;20391;-73
2022/08/03 01:16:09;;;;;;;1999.90;999.90;;;21.80;99.90;;;;;;5031679;28;20445;-73
2022/08/03 01:18:45;;;;;;;1999.90;999.90;;;21.80;99.90;;;;;;5031476;28;20402;-72
2022/08/03 01:21:26;;;;;;;1999.90;999.90;;;21.70;99.90;;;;;;5032377;28;20434;-72
2022/08/03 01:24:21;;;;;;;1999.90;999.90;;;21.60;99.90;;;;;;5031497;28;20466;-72
2022/08/03 01:26:47;;;;;;;1999.90;999.90;;;21.60;99.90;;;;;;5013103;28;20419;-73
2022/08/03 01:29:39;;;;;;;1999.90;999.90;;;21.60;99.90;;;;;;5013743;28;20796;-72
2022/08/03 01:32:11;;;;;;;1999.90;999.90;;;21.50;99.90;;;;;;5013481;28;20583;-72
2022/08/03 01:34:42;;;;;;;1999.90;999.90;;;21.50;99.90;;;;;;5013454;28;20463;-73
2022/08/03 01:37:11;;;;;;;1999.90;999.90;;;21.40;99.90;;;;;;5013318;28;20768;-73
2022/08/03 01:39:39;;;;;;;1999.90;999.90;;;21.30;99.90;;;;;;5013390;28;20402;-73
2022/08/03 01:42:09;;;;;;;1999.90;999.90;;;21.30;99.90;;;;;;5013363;28;20516;-73
2022/08/03 01:44:40;;;;;;;1999.90;999.90;;;21.30;99.90;;;;;;5013222;28;20434;-73
2022/08/03 01:47:07;;;;;;;1999.90;999.90;;;21.20;99.90;;;;;;5013009;28;20497;-73
2022/08/03 01:49:38;;;;;;;1999.90;999.90;;;21.20;99.90;;;;;;5013304;28;20819;-72
2022/08/03 01:52:05;;;;;;;1999.90;999.90;;;21.10;99.90;;;;;;5013244;28;20400;-74
2022/08/03 01:54:35;;;;;;;1999.90;999.90;;;21.10;99.90;;;;;;5013110;28;20437;-73
2022/08/03 01:57:02;;;;;;;1999.90;999.90;;;21.00;99.90;;;;;;5012852;28;20493;-72
2022/08/03 01:59:29;;;;;;;1999.90;999.90;;;21.00;99.90;;;;;;5012961;28;20398;-72
2022/08/03 02:01:56;;;;;;;1999.90;999.90;;;21.00;99.90;;;;;;5012926;28;20402;-72
2022/08/03 02:04:24;;;;;;;1999.90;999.90;;;21.00;99.90;;;;;;5012678;28;20440;-72
2022/08/03 02:06:52;;;;;;;1999.90;999.90;;;21.00;99.90;;;;;;5012588;28;20405;-72
2022/08/03 02:09:20;;;;;;;1999.90;999.90;;;21.00;99.90;;;;;;5012853;28;21135;-73
2022/08/03 02:11:47;;;;;;;1999.90;999.90;;;21.00;99.90;;;;;;5012810;28;20413;-72
2022/08/03 02:14:13;;;;;;;1999.90;999.90;;;21.00;99.90;;;;;;5012516;28;20840;-71
2022/08/03 02:16:39;;;;;;;1999.90;999.90;;;21.00;99.90;;;;;;5012460;28;20439;-72
2022/08/03 02:19:07;;;;;;;1999.90;999.90;;;20.90;99.90;;;;;;5012541;28;20930;-71
2022/08/03 02:21:36;;;;;;;1999.90;999.90;;;20.90;99.90;;;;;;5012546;28;20175;-71
2022/08/03 02:24:03;;;;;;;1999.90;999.90;;;20.90;99.90;;;;;;5024044;28;20422;-72
2022/08/03 02:26:30;;;;;;;1999.90;999.90;;;20.80;99.90;;;;;;5028581;28;20984;-72
2022/08/03 02:29:00;;;;;;;1999.90;999.90;;;20.80;99.90;;;;;;5028744;28;20495;-73
2022/08/03 02:31:31;;;;;;;1999.90;999.90;;;20.80;99.90;;;;;;5029393;28;20405;-73
2022/08/03 02:34:01;;;;;;;1999.90;999.90;;;20.70;99.90;;;;;;5028553;28;20403;-72
2022/08/03 02:36:29;;;;;;;1999.90;999.90;;;20.70;99.90;;;;;;5028053;28;20406;-72
2022/08/03 02:38:58;;;;;;;1999.90;999.90;;;20.60;99.90;;;;;;5027037;28;20414;-72
2022/08/03 02:41:47;;;;;;;1999.90;999.90;;;20.50;99.90;;;;;;5027406;28;20486;-73
2022/08/03 02:44:16;;;;;;;1999.90;999.90;;;20.50;99.90;;;;;;5026824;28;21084;-72
2022/08/03 02:46:44;;;;;;;1999.90;999.90;;;20.50;99.90;;;;;;5026633;28;20414;-72
2022/08/03 02:49:12;;;;;;;1999.90;999.90;;;20.50;99.90;;;;;;5020445;28;20453;-72
2022/08/03 02:51:40;;;;;;;1999.90;999.90;;;20.50;99.90;;;;;;5012227;28;20410;-72
2022/08/03 02:54:08;;;;;;;1999.90;999.90;;;20.40;99.90;;;;;;5012125;28;20423;-72
2022/08/03 02:56:35;;;;;;;1999.90;999.90;;;20.40;99.90;;;;;;5011845;28;20445;-72
2022/08/03 02:59:01;;;;;;;1999.90;999.90;;;20.40;99.90;;;;;;5012271;28;20406;-72
2022/08/03 03:01:29;;;;;;;1999.90;999.90;;;20.40;99.90;;;;;;5012146;28;20400;-72
2022/08/03 03:03:56;;;;;;;1999.90;999.90;;;20.40;99.90;;;;;;5012004;28;20512;-72
2022/08/03 03:06:24;;;;;;;1999.90;999.90;;;20.30;99.90;;;;;;5011889;28;20395;-71
2022/08/03 03:08:51;;;;;;;1999.90;999.90;;;20.30;99.90;;;;;;5011883;28;20549;-71
2022/08/03 03:11:20;;;;;;;1999.90;999.90;;;20.30;99.90;;;;;;5012016;28;20480;-71
2022/08/03 03:13:48;;;;;;;1999.90;999.90;;;20.30;99.90;;;;;;5011833;28;20410;-71
2022/08/03 03:16:15;;;;;;;1999.90;999.90;;;20.30;99.90;;;;;;5011705;28;20406;-71
2022/08/03 03:18:43;;;;;;;1999.90;999.90;;;20.30;99.90;;;;;;5013526;28;20897;-73
2022/08/03 03:21:09;;;;;;;1999.90;999.90;;;20.30;99.90;;;;;;5016003;28;20415;-72
2022/08/03 03:23:40;;;;;;;1999.90;999.90;;;20.30;99.90;;;;;;5015737;28;20405;-72
2022/08/03 03:26:07;;;;;;;1999.90;999.90;;;20.20;99.90;;;;;;5015694;28;20410;-73
2022/08/03 03:28:35;;;;;;;1999.90;999.90;;;20.20;99.90;;;;;;5015800;28;20438;-73
2022/08/03 03:31:02;;;;;;;1999.90;999.90;;;20.20;99.90;;;;;;5015821;28;20965;-73
2022/08/03 03:33:28;;;;;;;1999.90;999.90;;;20.20;99.90;;;;;;5015759;28;20399;-72
2022/08/03 03:35:54;;;;;;;1999.90;999.90;;;20.20;99.90;;;;;;5015349;28;20852;-71
2022/08/03 03:38:20;;;;;;;1999.90;999.90;;;20.10;99.90;;;;;;5015435;28;20199;-71
2022/08/03 03:40:46;;;;;;;1999.90;999.90;;;20.10;99.90;;;;;;5015501;28;20387;-73
2022/08/03 03:43:12;;;;;;;1999.90;999.90;;;20.10;99.90;;;;;;5015752;28;20168;-73
2022/08/03 03:45:41;;;;;;;1999.90;999.90;;;20.10;99.90;;;;;;5015700;28;20474;-73
2022/08/03 03:48:07;;;;;;;1999.90;999.90;;;20.00;99.90;;;;;;5015164;28;20495;-73
2022/08/03 03:50:35;;;;;;;1999.90;999.90;;;20.00;99.90;;;;;;5015479;28;20435;-73
2022/08/03 03:53:02;;;;;;;1999.90;999.90;;;20.00;99.90;;;;;;5015387;28;20370;-72
2022/08/03 03:55:28;;;;;;;1999.90;999.90;;;19.90;99.90;;;;;;5015170;28;20423;-71
2022/08/03 03:57:54;;;;;;;1999.90;999.90;;;19.90;99.90;;;;;;5014959;28;20752;-71
2022/08/03 04:00:19;;;;;;;1999.90;999.90;;;19.90;99.90;;;;;;5015130;28;20413;-71
2022/08/03 04:02:46;;;;;;;1999.90;999.90;;;19.90;99.90;;;;;;5015232;28;20171;-73
2022/08/03 04:11:14;;;;;;;1999.90;999.90;;;19.80;99.90;;;;;;5015431;28;20503;-73
2022/08/03 04:13:48;;;;;;;1999.90;999.90;;;19.70;99.90;;;;;;5015373;28;20396;-73
2022/08/03 04:16:16;;;;;;;1999.90;999.90;;;19.60;99.90;;;;;;5015060;28;20976;-73
2022/08/03 04:18:47;;;;;;;1999.90;999.90;;;19.60;99.90;;;;;;5014926;28;20406;-72
2022/08/03 04:21:16;;;;;;;1999.90;999.90;;;19.60;99.90;;;;;;5014898;28;20493;-72
2022/08/03 04:23:46;;;;;;;1999.90;999.90;;;19.60;99.90;;;;;;5014642;28;20466;-74
2022/08/03 04:26:15;;;;;;;1999.90;999.90;;;19.60;99.90;;;;;;5014518;28;20371;-73
2022/08/03 04:28:44;;;;;;;1999.90;999.90;;;19.60;99.90;;;;;;5014638;28;20455;-73
2022/08/03 04:31:12;;;;;;;1999.90;999.90;;;19.60;99.90;;;;;;5013653;28;20500;-72
2022/08/03 04:33:40;;;;;;;1999.90;999.90;;;19.60;99.90;;;;;;5014517;28;20451;-71
2022/08/03 04:36:08;;;;;;;1999.90;999.90;;;19.70;99.90;;;;;;5014214;28;20460;-71
2022/08/03 04:38:42;;;;;;;1999.90;999.90;;;19.70;99.90;;;;;;5014309;28;20788;-71
2022/08/03 04:41:09;;;;;;;1999.90;999.90;;;19.70;99.90;;;;;;5014450;28;20466;-71
2022/08/03 04:43:38;;;;;;;1999.90;999.90;;;19.70;99.90;;;;;;5027682;28;20411;-73
2022/08/03 04:46:05;;;;;;;1999.90;999.90;;;19.80;99.90;;;;;;5022886;28;20436;-74
2022/08/03 04:48:31;;;;;;;1999.90;999.90;;;19.80;99.90;;;;;;5014243;28;20537;-71
2022/08/03 04:50:59;;;;;;;1999.90;999.90;;;19.80;99.90;;;;;;5014174;28;20806;-71
2022/08/03 04:53:25;;;;;;;1999.90;999.90;;;19.80;99.90;;;;;;5025638;28;20818;-73
2022/08/03 04:55:50;;;;;;;1999.90;999.90;;;19.90;99.90;;;;;;5029412;28;20436;-73
2022/08/03 04:58:16;;;;;;;1999.90;999.90;;;20.00;99.90;;;;;;5023717;28;20205;-73
2022/08/03 05:00:42;;;;;;;1999.90;999.90;;;20.00;99.90;;;;;;5014416;28;20174;-73
2022/08/03 05:03:07;;;;;;;1999.90;999.90;;;20.10;99.90;;;;;;5014219;28;20177;-73
2022/08/03 05:05:33;;;;;;;1999.90;999.90;;;20.20;99.90;;;;;;5014059;28;20192;-73
2022/08/03 05:07:59;;;;;;;1999.90;999.90;;;20.20;99.90;;;;;;5013768;28;20246;-73
2022/08/03 05:10:24;;;;;;;1999.90;999.90;;;20.30;99.90;;;;;;5014037;28;20174;-73
2022/08/03 05:12:51;;;;;;;1999.90;999.90;;;20.30;99.90;;;;;;5014093;28;20198;-73
2022/08/03 05:15:16;;;;;;;1999.90;999.90;;;20.40;99.90;;;;;;5014175;28;20688;-71
2022/08/03 05:17:42;;;;;;;1999.90;999.90;;;20.50;99.90;;;;;;5013430;28;20410;-72
2022/08/03 05:20:09;;;;;;;1999.90;999.90;;;20.60;99.90;;;;;;5013615;28;20685;-72
2022/08/03 05:22:34;;;;;;;1999.90;999.90;;;20.70;99.90;;;;;;5013471;28;20916;-72
2022/08/03 05:25:01;;;;;;;1999.90;999.90;;;20.70;99.90;;;;;;5013439;28;20429;-71
2022/08/03 05:27:26;;;;;;;1999.90;999.90;;;20.80;99.90;;;;;;5013257;28;20197;-71
2022/08/03 05:29:52;;;;;;;1999.90;999.90;;;20.90;99.90;;;;;;5018300;28;20472;-73
2022/08/03 05:32:18;;;;;;;1999.90;999.90;;;21.00;99.90;;;;;;5028606;28;20185;-73
2022/08/03 05:34:44;;;;;;;1999.90;999.90;;;21.10;99.90;;;;;;5027385;28;20200;-73
2022/08/03 05:37:10;;;;;;;1999.90;999.90;;;21.20;99.90;;;;;;5028950;28;20421;-73
2022/08/03 05:39:36;;;;;;;1999.90;999.90;;;21.20;99.90;;;;;;5028407;28;20385;-73
2022/08/03 05:42:02;;;;;;;1999.90;999.90;;;21.30;99.90;;;;;;5028458;28;20380;-73
2022/08/03 05:44:29;;;;;;;1999.90;999.90;;;21.40;99.90;;;;;;5028782;28;20414;-72
2022/08/03 05:46:55;;;;;;;1999.90;999.90;;;21.40;99.90;;;;;;5028632;28;20184;-73
2022/08/03 05:49:22;;;;;;;1999.90;999.90;;;21.50;99.90;;;;;;5028620;28;20536;-73
2022/08/03 05:51:47;;;;;;;1999.90;999.90;;;21.60;99.90;;;;;;5028901;28;20176;-73
2022/08/03 05:54:13;;;;;;;1999.90;999.90;;;21.70;99.90;;;;;;5029193;28;20461;-73
2022/08/03 05:56:41;;;;;;;1999.90;999.90;;;21.80;99.90;;;;;;5028559;28;20183;-73
2022/08/03 05:59:08;;;;;;;1999.90;999.90;;;21.90;99.90;;;;;;5028827;28;20191;-73
2022/08/03 06:01:33;;;;;;;1999.90;999.90;;;21.90;99.90;;;;;;5028333;28;20419;-72
2022/08/03 06:03:59;;;;;;;1999.90;999.90;;;22.00;99.90;;;;;;5023635;28;20954;-73
2022/08/03 06:06:24;;;;;;;1999.90;999.90;;;22.10;99.90;;;;;;5012876;28;20525;-73
2022/08/03 06:08:50;;;;;;;1999.90;999.90;;;22.20;99.90;;;;;;5012727;28;20243;-71
2022/08/03 06:11:16;;;;;;;1999.90;999.90;;;22.30;99.90;;;;;;5012816;28;20325;-71
2022/08/03 06:13:42;;;;;;;1999.90;999.90;;;22.40;99.90;;;;;;5012727;28;20172;-71
2022/08/03 06:16:08;;;;;;;1999.90;999.90;;;22.50;99.90;;;;;;5014247;28;20400;-73
2022/08/03 06:18:34;;;;;;;1999.90;999.90;;;22.50;99.90;;;;;;5021827;28;20410;-72
2022/08/03 06:21:00;;;;;;;1999.90;999.90;;;22.70;99.90;;;;;;5025756;28;20414;-73
2022/08/03 06:23:25;;;;;;;1999.90;999.90;;;22.80;99.90;;;;;;5026681;28;20396;-73
2022/08/03 06:25:51;;;;;;;1999.90;999.90;;;22.90;99.90;;;;;;5023283;28;20224;-72
2022/08/03 06:28:17;;;;;;;1999.90;999.90;;;23.00;99.90;;;;;;5012236;28;20211;-72
2022/08/03 06:30:44;;;;;;;1999.90;999.90;;;23.20;99.90;;;;;;5012518;28;20172;-73
2022/08/03 06:33:09;;;;;;;1999.90;999.90;;;23.30;99.90;;;;;;5019081;28;20432;-73
2022/08/03 06:35:35;;;;;;;1999.90;999.90;;;23.40;99.90;;;;;;5012627;28;20463;-74
2022/08/03 06:38:01;;;;;;;1999.90;999.90;;;23.50;99.90;;;;;;5012765;28;20181;-74
2022/08/03 06:40:28;;;;;;;1999.90;999.90;;;23.50;99.90;;;;;;5012897;28;20215;-73
2022/08/03 06:42:58;;;;;;;1999.90;999.90;;;23.60;99.90;;;;;;5012760;28;20552;-73
2022/08/03 06:45:25;;;;;;;1999.90;999.90;;;23.60;99.90;;;;;;5013225;28;20410;-73
2022/08/03 06:48:19;;;;;;;1999.90;999.90;;;23.70;99.90;;;;;;5012757;28;20960;-73
2022/08/03 06:50:45;;;;;;;1999.90;999.90;;;23.90;99.90;;;;;;5017631;28;20416;-73
2022/08/03 06:53:11;;;;;;;1999.90;999.90;;;24.00;99.90;;;;;;5026366;28;20562;-73
2022/08/03 06:55:37;;;;;;;1999.90;999.90;;;24.00;99.90;;;;;;5027050;28;20248;-72
2022/08/03 06:58:02;;;;;;;1999.90;999.90;;;24.20;99.90;;;;;;5027393;28;20226;-72
2022/08/03 07:00:29;;;;;;;1999.90;999.90;;;24.30;99.90;;;;;;5025366;28;20407;-73
2022/08/03 07:02:55;;;;;;;1999.90;999.90;;;24.40;99.90;;;;;;5012432;28;20750;-72
2022/08/03 07:05:21;;;;;;;1999.90;999.90;;;24.50;99.90;;;;;;5011956;28;20482;-72
2022/08/03 07:07:48;;;;;;;1999.90;999.90;;;24.50;99.90;;;;;;5011894;28;20200;-73
2022/08/03 07:10:13;;;;;;;1999.90;999.90;;;24.70;99.90;;;;;;5012247;28;20893;-73
2022/08/03 07:12:40;;;;;;;1999.90;999.90;;;24.80;99.90;;;;;;5012245;28;20494;-73
2022/08/03 07:15:07;;;;;;;1999.90;999.90;;;24.90;99.90;;;;;;5012207;28;20196;-73
2022/08/03 07:17:34;;;;;;;1999.90;999.90;;;25.00;99.90;;;;;;5012535;28;20392;-72
2022/08/03 07:20:02;;;;;;;1999.90;999.90;;;25.20;99.90;;;;;;5028741;28;20378;-72
2022/08/03 07:22:28;;;;;;;1999.90;999.90;;;25.20;99.90;;;;;;5029488;28;20439;-73
2022/08/03 07:24:53;;;;;;;1999.90;999.90;;;25.20;99.90;;;;;;5018890;28;20417;-72
2022/08/03 07:27:19;;;;;;;1999.90;999.90;;;25.30;99.90;;;;;;5011483;28;20706;-72
2022/08/03 07:29:45;;;;;;;1999.90;999.90;;;25.50;99.90;;;;;;5011850;28;20165;-72
2022/08/03 07:32:10;;;;;;;1999.90;999.90;;;25.50;99.90;;;;;;5011887;28;20169;-72
2022/08/03 07:34:36;;;;;;;1999.90;999.90;;;25.60;99.90;;;;;;5024643;28;20219;-72
2022/08/03 07:37:02;;;;;;;1999.90;999.90;;;25.60;99.90;;;;;;5011560;28;20661;-73
2022/08/03 07:39:27;;;;;;;1999.90;999.90;;;25.70;99.90;;;;;;5011896;28;20170;-73
2022/08/03 07:41:53;;;;;;;1999.90;999.90;;;25.90;99.90;;;;;;5011921;28;20484;-73
2022/08/03 07:44:19;;;;;;;1999.90;999.90;;;25.90;99.90;;;;;;5022193;28;20193;-72
2022/08/03 07:46:45;;;;;;;1999.90;999.90;;;26.10;99.90;;;;;;5018966;28;20212;-71
2022/08/03 07:49:11;;;;;;;1999.90;999.90;;;26.20;99.90;;;;;;5011551;28;20483;-72
2022/08/03 07:51:37;;;;;;;1999.90;999.90;;;26.10;99.90;;;;;;5011633;28;20486;-71
2022/08/03 07:54:03;;;;;;;1999.90;999.90;;;26.20;99.90;;;;;;5024540;28;20283;-72
2022/08/03 07:56:29;;;;;;;1999.90;999.90;;;26.20;99.90;;;;;;5029697;28;20396;-72
2022/08/03 07:58:55;;;;;;;1999.90;999.90;;;26.30;99.90;;;;;;5029309;28;20420;-72
2022/08/03 08:01:21;;;;;;;1999.90;999.90;;;26.40;99.90;;;;;;5029925;28;20435;-72
2022/08/03 08:03:48;;;;;;;1999.90;999.90;;;26.50;99.90;;;;;;5028671;28;20175;-72
2022/08/03 08:06:14;;;;;;;1999.90;999.90;;;26.50;99.90;;;;;;5014872;28;20442;-72
2022/08/03 08:08:40;;;;;;;1999.90;999.90;;;26.60;99.90;;;;;;5022538;28;20422;-72
2022/08/03 08:11:06;;;;;;;1999.90;999.90;;;26.60;99.90;;;;;;5020234;28;20423;-73
2022/08/03 08:13:32;;;;;;;1999.90;999.90;;;26.70;99.90;;;;;;5024514;28;20895;-72
2022/08/03 08:15:58;;;;;;;1999.90;999.90;;;26.70;99.90;;;;;;5034932;28;20204;-72
2022/08/03 08:18:23;;;;;;;1999.90;999.90;;;26.80;99.90;;;;;;5023556;28;20408;-72
2022/08/03 08:20:49;;;;;;;1999.90;999.90;;;26.80;99.90;;;;;;5017238;28;20267;-73
2022/08/03 08:23:21;;;;;;;1999.90;999.90;;;26.90;99.90;;;;;;5015132;28;20173;-73
2022/08/03 08:25:47;;;;;;;1999.90;999.90;;;27.00;99.90;;;;;;5014716;28;20458;-72
2022/08/03 08:28:13;;;;;;;1999.90;999.90;;;27.10;99.90;;;;;;5014574;28;20509;-73
2022/08/03 08:30:39;;;;;;;1999.90;999.90;;;27.10;99.90;;;;;;5014767;28;20864;-72
2022/08/03 08:33:04;;;;;;;1999.90;999.90;;;27.20;99.90;;;;;;5025358;28;20183;-73
2022/08/03 08:35:30;;;;;;;1999.90;999.90;;;27.20;99.90;;;;;;5022566;28;20185;-72
2022/08/03 08:37:58;;;;;;;1999.90;999.90;;;27.30;99.90;;;;;;5020610;28;20180;-71
2022/08/03 08:40:24;;;;;;;1999.90;999.90;;;27.40;99.90;;;;;;5014829;28;20195;-72
2022/08/03 08:42:50;;;;;;;1999.90;999.90;;;27.50;99.90;;;;;;5014355;28;20435;-72
2022/08/03 08:45:17;;;;;;;1999.90;999.90;;;27.70;99.90;;;;;;5016977;28;20457;-72
2022/08/03 08:47:45;;;;;;;1999.90;999.90;;;27.80;99.90;;;;;;5017000;28;20435;-73
2022/08/03 08:50:12;;;;;;;1999.90;999.90;;;27.90;99.90;;;;;;5014827;28;20404;-72
2022/08/03 08:52:44;;;;;;;1999.90;999.90;;;28.00;99.90;;;;;;5023827;28;20443;-73
2022/08/03 08:55:15;;;;;;;1999.90;999.90;;;28.00;99.90;;;;;;5020866;28;20419;-72
2022/08/03 08:57:48;;;;;;;1999.90;999.90;;;28.20;99.90;;;;;;5031087;28;20439;-72
2022/08/03 09:00:14;;;;;;;1999.90;999.90;;;28.20;99.90;;;;;;5014067;28;20921;-72
2022/08/03 09:02:44;;;;;;;1999.90;999.90;;;28.40;99.90;;;;;;5013884;28;20411;-72
2022/08/03 09:05:15;;;;;;;1999.90;999.90;;;28.40;99.90;;;;;;5019101;28;20422;-72
2022/08/03 09:07:41;;;;;;;1999.90;999.90;;;28.50;99.90;;;;;;5024369;28;20882;-73
2022/08/03 09:10:09;;;;;;;1999.90;999.90;;;28.60;99.90;;;;;;5033690;28;20447;-72
2022/08/03 09:12:53;;;;;;;1999.90;999.90;;;28.90;99.90;;;;;;5034312;28;20480;-72
2022/08/03 09:15:30;;;;;;;1999.90;999.90;;;28.90;99.90;;;;;;5022518;28;20482;-71
2022/08/03 09:17:58;;;;;;;1999.90;999.90;;;29.20;99.90;;;;;;5013090;28;20415;-71
2022/08/03 09:20:26;;;;;;;1999.90;999.90;;;29.40;99.90;;;;;;5027464;28;20412;-72
2022/08/03 09:22:54;;;;;;;1999.90;999.90;;;29.40;99.90;;;;;;5029220;28;20481;-72
2022/08/03 09:25:26;;;;;;;1999.90;999.90;;;29.50;99.40;;;;;;5018233;28;20479;-73
2022/08/03 09:27:51;;;;;;;1999.90;999.90;;;29.60;98.50;;;;;;5022435;28;20483;-72
2022/08/03 09:30:19;;;;;;;1999.90;999.90;;;29.70;97.40;;;;;;5014405;28;20436;-73
2022/08/03 09:32:45;;;;;;;1999.90;999.90;;;29.80;96.50;;;;;;5017900;28;20407;-72
2022/08/03 09:35:13;;;;;;;1999.90;999.90;;;29.80;95.90;;;;;;5031910;28;20463;-72
2022/08/03 09:37:39;;;;;;;1999.90;999.90;;;29.90;96.20;;;;;;5021840;28;20415;-71
2022/08/03 09:40:06;;;;;;;1999.90;999.90;;;29.90;94.70;;;;;;5013363;28;20404;-71
2022/08/03 09:42:37;;;;;;;1999.90;999.90;;;30.00;94.00;;;;;;5013160;28;20403;-71
2022/08/03 09:45:03;;;;;;;1999.90;999.90;;;30.00;93.00;;;;;;5023348;28;20416;-73
2022/08/03 09:47:31;;;;;;;1999.90;999.90;;;30.10;91.60;;;;;;5018922;28;20424;-72
2022/08/03 09:50:07;;;;;;;1999.90;999.90;;;30.20;90.70;;;;;;5014072;28;20419;-72
2022/08/03 09:52:36;;;;;;;1999.90;999.90;;;30.30;90.50;;;;;;5013396;28;20435;-72
2022/08/03 09:55:08;;;;;;;1999.90;999.90;;;30.30;88.40;;;;;;5012934;28;20428;-72
2022/08/03 09:57:34;;;;;;;1999.90;999.90;;;30.30;85.80;;;;;;5013008;28;20419;-72
2022/08/03 10:00:11;;;;;;;1999.90;999.90;;;30.30;82.80;;;;;;5013078;28;20783;-71
2022/08/03 10:02:39;;;;;;;1999.90;999.90;;;30.50;80.80;;;;;;5013506;28;20604;-72
2022/08/03 10:05:07;;;;;;;1999.90;999.90;;;30.50;79.20;;;;;;5013425;28;20420;-72
2022/08/03 10:07:48;;;;;;;1999.90;999.90;;;30.60;79.20;;;;;;5012601;28;20404;-72
2022/08/03 10:10:15;;;;;;;1999.90;999.90;;;30.70;79.20;;;;;;5013861;28;20439;-72
2022/08/03 10:12:42;;;;;;;1999.90;999.90;;;30.90;73.90;;;;;;5024286;28;20436;-71
2022/08/03 10:15:09;;;;;;;1999.90;999.90;;;31.00;70.80;;;;;;5012444;28;20502;-71
2022/08/03 10:17:35;;;;;;;1999.90;999.90;;;31.00;70.30;;;;;;5012977;28;20415;-72
2022/08/03 10:20:02;;;;;;;1999.90;999.90;;;31.10;68.80;;;;;;5013773;28;20798;-72
2022/08/03 10:22:37;;;;;;;1999.90;999.90;;;30.90;63.90;;;;;;5028113;28;20498;-73
2022/08/03 10:25:11;;;;;;;1999.90;999.90;;;30.90;62.40;;;;;;5014698;28;20467;-73
2022/08/03 10:27:40;;;;;;;1999.90;999.90;;;31.00;64.60;;;;;;5026347;28;20509;-72
2022/08/03 10:30:08;;;;;;;1999.90;999.90;;;31.20;66.80;;;;;;5012352;28;20446;-72
2022/08/03 10:32:40;;;;;;;1999.90;999.90;;;31.60;62.80;;;;;;5012700;28;20531;-72
2022/08/03 10:35:15;;;;;;;1999.90;999.90;;;31.80;58.60;;;;;;5013491;28;20442;-72
2022/08/03 10:38:02;;;;;;;1999.90;999.90;;;31.80;57.00;;;;;;5012730;28;20784;-72
2022/08/03 10:40:30;;;;;;;1999.90;999.90;;;31.80;55.40;;;;;;5022676;28;20473;-72
2022/08/03 10:43:02;;;;;;;1999.90;999.90;;;31.80;54.30;;;;;;5013067;28;20989;-72
2022/08/03 10:45:28;;;;;;;1999.90;999.90;;;31.80;53.50;;;;;;5020781;28;20428;-72
2022/08/03 10:47:55;;;;;;;1999.90;999.90;;;31.90;54.10;;;;;;5029690;28;20539;-72
2022/08/03 10:50:23;;;;;;;1999.90;999.90;;;32.10;52.90;;;;;;5013958;28;20595;-73
2022/08/03 10:53:05;;;;;;;1999.90;999.90;;;32.30;52.60;;;;;;5012811;28;20408;-73
2022/08/03 10:58:36;;;;;;;1999.90;999.90;;;32.50;47.40;;;;;;5018277;28;20442;-71
2022/08/03 11:01:03;;;;;;;1999.90;999.90;;;32.40;45.50;;;;;;5013046;28;20803;-72
2022/08/03 11:03:29;;;;;;;1999.90;999.90;;;32.40;45.40;;;;;;5011989;28;20420;-71
2022/08/03 11:06:17;;;;;;;1999.90;999.90;;;32.30;44.70;;;;;;5011777;28;20514;-71
2022/08/03 11:08:47;;;;;;;1999.90;999.90;;;32.50;45.60;;;;;;5023345;28;20211;-73
2022/08/03 11:11:16;;;;;;;1999.90;999.90;;;32.90;45.50;;;;;;5015833;28;20866;-72
2022/08/03 11:14:03;;;;;;;1999.90;999.90;;;33.30;43.50;;;;;;5012094;28;20415;-72
2022/08/03 11:16:34;;;;;;;1999.90;999.90;;;33.40;41.90;;;;;;5070922;22;20488;-64
2022/08/03 11:19:02;;;;;;;1999.90;999.90;;;33.40;39.70;;;;;;5031793;28;20813;-64
2022/08/03 11:21:46;;;;;;;1999.90;999.90;;;33.20;38.90;;;;;;5031790;28;20486;-64
2022/08/03 11:24:35;;;;;;;1999.90;999.90;;;32.80;39.20;;;;;;5031716;28;20498;-64
2022/08/03 11:27:20;;;;;;;1999.90;999.90;;;32.80;39.40;;;;;;5011518;28;20434;-65
2022/08/03 11:30:01;;;;;;;1999.90;999.90;;;32.90;38.90;;;;;;5012370;28;20444;-66
2022/08/03 11:32:39;;;;;;;1999.90;999.90;;;33.10;37.10;;;;;;5012545;28;20408;-65
2022/08/03 11:35:22;;;;;;;1999.90;999.90;;;33.20;36.80;;;;;;5012090;28;20416;-65
2022/08/03 11:37:57;;;;;;;1999.90;999.90;;;33.20;36.60;;;;;;5011719;28;20461;-65
2022/08/03 11:40:38;;;;;;;1999.90;999.90;;;33.10;35.80;;;;;;5014693;28;20422;-65
2022/08/03 11:43:29;;;;;;;1999.90;999.90;;;33.10;36.50;;;;;;5015960;28;20391;-65
2022/08/03 11:46:31;;;;;;;1999.90;999.90;;;33.20;35.10;;;;;;5004995;28;20435;-65
2022/08/03 11:49:05;;;;;;;1999.90;999.90;;;33.40;36.10;;;;;;5014775;28;20455;-65
2022/08/03 11:51:31;;;;;;;1999.90;999.90;;;33.60;34.70;;;;;;5015475;28;20460;-64
2022/08/03 11:54:05;;;;;;;1999.90;999.90;;;33.70;33.50;;;;;;5015309;28;20479;-65
2022/08/03 11:56:45;;;;;;;1999.90;999.90;;;33.70;32.30;;;;;;5014885;28;20661;-65
2022/08/03 11:59:10;;;;;;;1999.90;999.90;;;33.90;32.20;;;;;;5015303;28;20489;-65
2022/08/03 12:01:37;;;;;;;1999.90;999.90;;;34.00;31.40;;;;;;5015166;28;20503;-64
2022/08/03 12:04:04;;;;;;;1999.90;999.90;;;33.90;30.60;;;;;;5015134;28;20188;-66
2022/08/03 12:06:29;;;;;;;1999.90;999.90;;;34.00;30.40;;;;;;5014651;28;20933;-65
2022/08/03 12:08:55;;;;;;;1999.90;999.90;;;34.60;29.50;;;;;;5015160;28;20462;-66
2022/08/03 12:11:21;;;;;;;1999.90;999.90;;;35.20;28.30;;;;;;5015424;28;20169;-64
2022/08/03 12:13:49;;;;;;;1999.90;999.90;;;36.20;27.50;;;;;;5015048;28;20173;-63
2022/08/03 12:16:27;;;;;;;1999.90;999.90;;;36.80;24.00;;;;;;5014532;28;20452;-63